createdAt,value
2019-03-27T00:00:27.038Z,90.83
2019-03-27T00:02:56.653Z,90.83
2019-03-27T00:05:26.132Z,90.80
2019-03-27T00:07:55.363Z,90.80
2019-03-27T00:10:24.537Z,90.79
2019-03-27T00:12:54.038Z,90.79
2019-03-27T00:15:23.323Z,90.39
2019-03-27T00:17:52.853Z,90.21
2019-03-27T00:20:22.458Z,90.21
2019-03-27T00:22:52.568Z,90.39
2019-03-27T00:25:22.075Z,90.39
2019-03-27T00:27:51.888Z,89.93
2019-03-27T00:30:21.501Z,90.02
2019-03-27T00:32:51.371Z,90.27
2019-03-27T00:35:20.654Z,90.27
2019-03-27T00:37:49.857Z,89.90
2019-03-27T00:40:19.414Z,90.14
2019-03-27T00:42:48.921Z,89.73
2019-03-27T00:45:26.558Z,89.70
2019-03-27T00:47:49.740Z,89.16
2019-03-27T00:50:19.290Z,89.56
2019-03-27T00:52:48.818Z,89.56
2019-03-27T00:55:18.170Z,89.06
2019-03-27T00:57:47.333Z,89.03
2019-03-27T01:00:26.114Z,89.05
2019-03-27T01:02:55.825Z,88.92
2019-03-27T01:05:25.197Z,88.82
2019-03-27T01:07:54.774Z,88.70
2019-03-27T01:10:23.945Z,88.48
2019-03-27T01:12:54.374Z,88.62
2019-03-27T01:15:23.862Z,88.69
2019-03-27T01:17:53.369Z,88.62
2019-03-27T01:20:22.690Z,88.71
2019-03-27T01:22:52.189Z,88.43
2019-03-27T01:25:21.675Z,88.68
2019-03-27T01:27:52.498Z,88.63
2019-03-27T01:30:22.034Z,88.76
2019-03-27T01:32:51.847Z,88.76
2019-03-27T01:35:21.766Z,88.42
2019-03-27T01:37:51.249Z,88.90
2019-03-27T01:40:20.423Z,88.50
2019-03-27T01:42:49.967Z,88.20
2019-03-27T01:45:19.246Z,88.20
2019-03-27T01:47:49.082Z,87.95
2019-03-27T01:50:18.366Z,88.56
2019-03-27T01:52:48.197Z,88.43
2019-03-27T01:55:17.679Z,88.03
2019-03-27T01:57:47.211Z,88.03
2019-03-27T02:00:16.930Z,87.95
2019-03-27T02:02:46.442Z,88.37
2019-03-27T02:05:16.243Z,88.37
2019-03-27T02:07:45.760Z,88.01
2019-03-27T02:10:15.657Z,87.90
2019-03-27T02:12:45.165Z,87.89
2019-03-27T02:15:14.840Z,87.80
2019-03-27T02:17:44.992Z,87.69
2019-03-27T02:20:14.315Z,87.52
2019-03-27T02:22:43.783Z,87.73
2019-03-27T02:25:13.101Z,87.53
2019-03-27T02:27:43.059Z,87.21
2019-03-27T02:30:12.769Z,87.21
2019-03-27T02:32:42.550Z,87.25
2019-03-27T02:35:11.738Z,87.57
2019-03-27T02:37:41.245Z,87.12
2019-03-27T02:40:10.984Z,87.47
2019-03-27T02:42:40.463Z,87.08
2019-03-27T02:45:10.723Z,87.08
2019-03-27T02:47:39.926Z,87.58
2019-03-27T02:50:09.232Z,88.02
2019-03-27T02:52:38.441Z,88.02
2019-03-27T02:55:08.192Z,88.00
2019-03-27T02:57:37.400Z,88.00
2019-03-27T03:00:07.971Z,87.74
2019-03-27T03:02:37.858Z,87.98
2019-03-27T03:05:07.868Z,88.90
2019-03-27T03:07:37.984Z,87.96
2019-03-27T03:10:09.837Z,88.24
2019-03-27T03:12:39.350Z,88.24
2019-03-27T03:15:09.458Z,88.76
2019-03-27T03:17:38.691Z,89.30
2019-03-27T03:20:09.686Z,89.50
2019-03-27T03:22:39.237Z,89.48
2019-03-27T03:25:08.544Z,89.77
2019-03-27T03:27:38.021Z,89.77
2019-03-27T03:30:08.966Z,89.53
2019-03-27T03:32:38.597Z,89.69
2019-03-27T03:35:08.800Z,90.05
2019-03-27T03:37:38.911Z,90.05
2019-03-27T03:40:09.163Z,89.85
2019-03-27T03:42:38.431Z,90.00
2019-03-27T03:45:09.187Z,89.88
2019-03-27T03:47:38.675Z,89.18
2019-03-27T03:50:10.654Z,89.18
2019-03-27T03:52:40.272Z,89.39
2019-03-27T03:55:09.849Z,89.62
2019-03-27T03:57:39.664Z,89.62
2019-03-27T04:00:09.322Z,88.82
2019-03-27T04:02:38.606Z,89.04
2019-03-27T04:05:08.079Z,89.04
2019-03-27T04:07:37.613Z,88.92
2019-03-27T04:10:07.073Z,88.92
2019-03-27T04:12:36.590Z,89.34
2019-03-27T04:15:06.660Z,89.29
2019-03-27T04:17:35.897Z,89.39
2019-03-27T04:20:06.871Z,89.46
2019-03-27T04:22:36.268Z,89.46
2019-03-27T04:25:05.829Z,89.57
2019-03-27T04:27:35.027Z,89.57
2019-03-27T04:30:04.373Z,89.03
2019-03-27T04:32:33.862Z,89.16
2019-03-27T04:35:03.051Z,89.10
2019-03-27T04:37:32.930Z,88.65
2019-03-27T04:40:02.492Z,88.17
2019-03-27T04:42:32.090Z,88.17
2019-03-27T04:45:01.304Z,87.71
2019-03-27T04:47:32.689Z,87.71
2019-03-27T04:50:02.259Z,87.65
2019-03-27T04:52:31.875Z,87.45
2019-03-27T04:55:01.177Z,87.15
2019-03-27T04:57:30.739Z,87.00
2019-03-27T05:00:00.431Z,86.70
2019-03-27T05:02:29.983Z,86.63
2019-03-27T05:04:59.999Z,86.64
2019-03-27T05:07:29.258Z,86.50
2019-03-27T05:09:58.923Z,86.50
2019-03-27T05:12:28.413Z,86.25
2019-03-27T05:14:57.922Z,86.04
2019-03-27T05:17:27.734Z,85.75
2019-03-27T05:19:57.254Z,86.10
2019-03-27T05:22:27.153Z,86.08
2019-03-27T05:24:56.962Z,86.12
2019-03-27T05:27:26.470Z,86.37
2019-03-27T05:29:55.976Z,86.25
2019-03-27T05:32:25.198Z,86.49
2019-03-27T05:34:55.219Z,86.48
2019-03-27T05:37:24.413Z,86.78
2019-03-27T05:39:54.318Z,87.09
2019-03-27T05:42:23.493Z,87.09
2019-03-27T05:44:53.031Z,87.77
2019-03-27T05:47:22.217Z,88.22
2019-03-27T05:49:51.429Z,88.53
2019-03-27T05:52:21.231Z,89.32
2019-03-27T05:54:51.812Z,89.09
2019-03-27T05:57:21.365Z,89.36
2019-03-27T05:59:50.580Z,89.36
2019-03-27T06:02:20.063Z,89.30
2019-03-27T06:04:49.707Z,88.91
2019-03-27T06:07:19.287Z,88.84
2019-03-27T06:09:48.654Z,88.73
2019-03-27T06:12:18.607Z,88.73
2019-03-27T06:14:47.878Z,88.12
2019-03-27T06:17:17.406Z,88.04
2019-03-27T06:19:46.610Z,87.82
2019-03-27T06:22:15.833Z,87.53
2019-03-27T06:24:45.310Z,88.11
2019-03-27T06:27:14.521Z,87.97
2019-03-27T06:29:43.730Z,87.66
2019-03-27T06:32:13.233Z,87.42
2019-03-27T06:34:43.131Z,87.65
2019-03-27T06:37:12.450Z,87.98
2019-03-27T06:39:41.639Z,88.12
2019-03-27T06:42:11.160Z,87.76
2019-03-27T06:44:40.356Z,88.09
2019-03-27T06:47:09.834Z,88.27
2019-03-27T06:49:39.651Z,88.79
2019-03-27T06:52:09.260Z,88.64
2019-03-27T06:54:38.443Z,88.44
2019-03-27T06:57:07.725Z,89.56
2019-03-27T06:59:37.268Z,89.33
2019-03-27T07:02:06.775Z,89.93
2019-03-27T07:04:36.271Z,90.71
2019-03-27T07:07:05.879Z,90.41
2019-03-27T07:09:35.456Z,89.80
2019-03-27T07:12:05.301Z,89.85
2019-03-27T07:14:38.593Z,89.77
2019-03-27T07:17:07.783Z,89.74
2019-03-27T07:19:37.631Z,89.88
2019-03-27T07:22:06.841Z,90.64
2019-03-27T07:24:36.413Z,90.44
2019-03-27T07:27:06.024Z,90.83
2019-03-27T07:29:36.080Z,90.58
2019-03-27T07:32:05.331Z,90.58
2019-03-27T07:34:34.845Z,90.68
2019-03-27T07:37:04.246Z,90.56
2019-03-27T07:39:33.625Z,91.70
2019-03-27T07:42:03.168Z,91.09
2019-03-27T07:44:32.395Z,90.59
2019-03-27T07:47:04.939Z,91.35
2019-03-27T07:49:34.137Z,91.32
2019-03-27T07:52:03.325Z,90.87
2019-03-27T07:54:32.857Z,90.76
2019-03-27T07:57:02.127Z,90.80
2019-03-27T07:59:31.648Z,91.01
2019-03-27T08:02:00.840Z,91.29
2019-03-27T08:04:30.349Z,91.19
2019-03-27T08:06:59.856Z,91.16
2019-03-27T08:09:29.359Z,91.33
2019-03-27T08:11:58.944Z,91.87
2019-03-27T08:14:28.482Z,91.38
2019-03-27T08:16:58.489Z,90.80
2019-03-27T08:19:27.723Z,90.77
2019-03-27T08:21:57.203Z,90.67
2019-03-27T08:24:26.393Z,90.38
2019-03-27T08:26:55.806Z,89.92
2019-03-27T08:29:24.988Z,89.80
2019-03-27T08:31:54.504Z,89.51
2019-03-27T08:34:24.056Z,89.61
2019-03-27T08:36:53.456Z,90.18
2019-03-27T08:39:22.689Z,90.36
2019-03-27T08:41:51.891Z,89.83
2019-03-27T08:44:21.418Z,89.78
2019-03-27T08:46:50.662Z,89.74
2019-03-27T08:49:22.250Z,89.33
2019-03-27T08:51:51.577Z,90.12
2019-03-27T08:54:21.083Z,91.53
2019-03-27T08:56:50.584Z,91.61
2019-03-27T08:59:19.852Z,91.36
2019-03-27T09:01:49.016Z,91.17
2019-03-27T09:04:18.485Z,91.03
2019-03-27T09:06:47.664Z,91.07
2019-03-27T09:09:16.852Z,91.58
2019-03-27T09:11:46.040Z,90.99
2019-03-27T09:14:15.255Z,91.41
2019-03-27T09:16:44.789Z,92.06
2019-03-27T09:19:13.976Z,91.97
2019-03-27T09:21:43.498Z,91.17
2019-03-27T09:24:12.678Z,91.38
2019-03-27T09:26:41.822Z,90.46
2019-03-27T09:29:11.602Z,90.32
2019-03-27T09:31:45.133Z,91.50
2019-03-27T09:34:12.019Z,91.25
2019-03-27T09:36:41.556Z,91.61
2019-03-27T09:39:11.104Z,90.91
2019-03-27T09:41:40.872Z,91.53
2019-03-27T09:44:10.074Z,91.70
2019-03-27T09:46:39.791Z,91.21
2019-03-27T09:49:08.982Z,90.86
2019-03-27T09:51:38.182Z,90.67
2019-03-27T09:54:07.722Z,91.12
2019-03-27T09:56:36.930Z,90.68
2019-03-27T09:59:06.791Z,90.01
2019-03-27T10:01:36.608Z,90.02
2019-03-27T10:04:05.838Z,89.85
2019-03-27T10:06:35.000Z,89.68
2019-03-27T10:09:05.249Z,89.30
2019-03-27T10:11:34.726Z,89.41
2019-03-27T10:14:04.648Z,88.86
2019-03-27T10:16:34.151Z,90.04
2019-03-27T10:19:03.409Z,90.04
2019-03-27T10:21:33.528Z,89.31
2019-03-27T10:24:03.036Z,89.47
2019-03-27T10:26:32.253Z,89.79
2019-03-27T10:29:01.984Z,89.80
2019-03-27T10:31:31.736Z,89.04
2019-03-27T10:34:01.314Z,88.06
2019-03-27T10:36:30.570Z,87.74
2019-03-27T10:39:00.260Z,87.74
2019-03-27T10:41:29.961Z,87.81
2019-03-27T10:43:59.326Z,87.79
2019-03-27T10:46:29.264Z,87.10
2019-03-27T10:48:58.653Z,86.76
2019-03-27T10:51:28.255Z,86.05
2019-03-27T10:53:57.765Z,85.42
2019-03-27T10:56:27.362Z,84.50
2019-03-27T10:58:56.606Z,84.79
2019-03-27T11:01:26.482Z,84.79
2019-03-27T11:04:03.205Z,84.86
2019-03-27T11:06:32.375Z,85.30
2019-03-27T11:09:01.511Z,84.74
2019-03-27T11:11:30.756Z,86.31
2019-03-27T11:14:00.256Z,84.73
2019-03-27T11:16:29.580Z,86.07
2019-03-27T11:18:58.805Z,84.51
2019-03-27T11:21:28.205Z,84.48
2019-03-27T11:23:57.683Z,84.48
2019-03-27T11:26:27.187Z,85.52
2019-03-27T11:28:56.805Z,85.52
2019-03-27T11:31:26.698Z,86.15
2019-03-27T11:33:55.879Z,86.20
2019-03-27T11:36:25.385Z,86.96
2019-03-27T11:38:55.229Z,86.27
2019-03-27T11:41:24.372Z,86.11
2019-03-27T11:43:55.145Z,85.99
2019-03-27T11:46:25.390Z,84.36
2019-03-27T11:48:54.985Z,84.84
2019-03-27T11:51:24.497Z,83.98
2019-03-27T11:53:53.662Z,83.70
2019-03-27T11:56:22.897Z,84.52
2019-03-27T11:58:52.393Z,86.51
2019-03-27T12:01:21.892Z,85.41
2019-03-27T12:03:51.399Z,86.29
2019-03-27T12:06:20.696Z,86.15
2019-03-27T12:08:50.947Z,85.67
2019-03-27T12:11:20.419Z,85.50
2019-03-27T12:13:51.273Z,85.32
2019-03-27T12:16:20.436Z,84.75
2019-03-27T12:18:49.640Z,86.55
2019-03-27T12:21:18.818Z,86.55
2019-03-27T12:23:48.297Z,85.26
2019-03-27T12:26:17.522Z,84.50
2019-03-27T12:28:47.273Z,84.97
2019-03-27T12:31:17.086Z,84.67
2019-03-27T12:33:46.252Z,85.39
2019-03-27T12:36:16.434Z,85.50
2019-03-27T12:38:45.710Z,85.63
2019-03-27T12:41:14.869Z,85.41
2019-03-27T12:43:44.312Z,85.38
2019-03-27T12:46:14.119Z,85.60
2019-03-27T12:48:43.628Z,86.15
2019-03-27T12:51:13.849Z,85.87
2019-03-27T12:53:43.355Z,85.76
2019-03-27T12:56:12.574Z,85.85
2019-03-27T12:58:41.752Z,85.55
2019-03-27T13:01:11.568Z,85.72
2019-03-27T13:03:40.807Z,85.00
2019-03-27T13:06:10.985Z,84.44
2019-03-27T13:08:40.168Z,84.38
2019-03-27T13:11:09.687Z,84.13
2019-03-27T13:13:38.861Z,84.60
2019-03-27T13:16:08.392Z,84.53
2019-03-27T13:18:37.908Z,84.58
2019-03-27T13:21:07.460Z,84.63
2019-03-27T13:23:36.688Z,84.74
2019-03-27T13:26:06.215Z,84.43
2019-03-27T13:28:48.258Z,84.59
2019-03-27T13:31:07.067Z,85.13
2019-03-27T13:33:36.645Z,84.77
2019-03-27T13:36:06.182Z,84.52
2019-03-27T13:38:35.411Z,84.48
2019-03-27T13:41:04.582Z,84.25
2019-03-27T13:43:34.576Z,85.05
2019-03-27T13:46:03.865Z,85.13
2019-03-27T13:48:33.306Z,84.85
2019-03-27T13:51:02.810Z,85.37
2019-03-27T13:53:32.043Z,84.94
2019-03-27T13:56:01.539Z,84.83
2019-03-27T13:58:30.725Z,85.05
2019-03-27T14:01:00.499Z,85.22
2019-03-27T14:03:29.643Z,85.22
2019-03-27T14:05:59.127Z,85.03
2019-03-27T14:08:28.312Z,85.55
2019-03-27T14:10:57.932Z,85.50
2019-03-27T14:13:27.145Z,85.47
2019-03-27T14:15:56.633Z,85.55
2019-03-27T14:18:26.141Z,85.96
2019-03-27T14:20:55.377Z,86.24
2019-03-27T14:23:24.630Z,86.87
2019-03-27T14:25:54.449Z,87.61
2019-03-27T14:28:24.169Z,88.24
2019-03-27T14:30:55.520Z,88.86
2019-03-27T14:33:25.240Z,89.41
2019-03-27T14:35:54.746Z,91.15
2019-03-27T14:38:23.917Z,91.37
2019-03-27T14:40:53.944Z,90.77
2019-03-27T14:43:23.165Z,89.69
2019-03-27T14:45:52.444Z,89.96
2019-03-27T14:48:21.955Z,89.82
2019-03-27T14:50:51.386Z,89.36
2019-03-27T14:53:20.869Z,89.09
2019-03-27T14:55:50.118Z,88.34
2019-03-27T14:58:19.567Z,88.22
2019-03-27T15:00:49.430Z,89.27
2019-03-27T15:03:18.829Z,89.02
2019-03-27T15:05:48.286Z,89.08
2019-03-27T15:08:18.095Z,89.83
2019-03-27T15:10:47.623Z,90.32
2019-03-27T15:13:17.944Z,90.15
2019-03-27T15:15:47.841Z,90.07
2019-03-27T15:18:17.465Z,90.30
2019-03-27T15:20:46.663Z,90.31
2019-03-27T15:23:16.155Z,90.19
2019-03-27T15:25:45.660Z,90.27
2019-03-27T15:28:15.194Z,90.46
2019-03-27T15:30:44.351Z,90.52
2019-03-27T15:33:14.203Z,90.46
2019-03-27T15:35:44.716Z,90.43
2019-03-27T15:38:14.241Z,91.20
2019-03-27T15:40:45.467Z,91.20
2019-03-27T15:43:15.022Z,90.91
2019-03-27T15:45:44.699Z,91.13
2019-03-27T15:48:14.294Z,91.00
2019-03-27T15:50:54.283Z,91.72
2019-03-27T15:53:14.947Z,91.63
2019-03-27T15:55:44.548Z,91.63
2019-03-27T15:58:14.149Z,92.23
2019-03-27T16:00:43.748Z,92.13
2019-03-27T16:03:13.263Z,92.13
2019-03-27T16:05:42.768Z,92.49
2019-03-27T16:08:12.285Z,92.20
2019-03-27T16:10:41.886Z,92.07
2019-03-27T16:13:11.166Z,91.87
2019-03-27T16:15:40.423Z,92.36
2019-03-27T16:18:10.302Z,92.47
2019-03-27T16:20:39.450Z,92.68
2019-03-27T16:23:09.306Z,92.71
2019-03-27T16:25:38.813Z,92.67
2019-03-27T16:28:08.013Z,92.87
2019-03-27T16:30:37.417Z,92.88
2019-03-27T16:33:06.842Z,93.05
2019-03-27T16:35:37.113Z,93.05
2019-03-27T16:38:06.668Z,93.17
2019-03-27T16:40:47.027Z,93.17
2019-03-27T16:43:16.975Z,93.44
2019-03-27T16:45:46.681Z,93.69
2019-03-27T16:48:16.245Z,93.63
2019-03-27T16:50:46.186Z,93.59
2019-03-27T16:53:15.385Z,93.47
2019-03-27T16:55:45.272Z,93.66
2019-03-27T16:58:14.986Z,93.66
2019-03-27T17:00:44.295Z,93.27
2019-03-27T17:03:13.898Z,93.27
2019-03-27T17:05:53.226Z,93.14
2019-03-27T17:08:14.414Z,93.20
2019-03-27T17:10:43.855Z,93.20
2019-03-27T17:13:13.468Z,93.38
2019-03-27T17:15:42.632Z,93.34
2019-03-27T17:18:11.866Z,93.25
2019-03-27T17:20:41.472Z,93.29
2019-03-27T17:23:17.896Z,93.40
2019-03-27T17:25:42.275Z,93.50
2019-03-27T17:28:11.716Z,93.61
2019-03-27T17:30:40.882Z,93.91
2019-03-27T17:33:10.069Z,93.86
2019-03-27T17:35:39.520Z,93.99
2019-03-27T17:38:10.956Z,94.14
2019-03-27T17:40:40.376Z,94.11
2019-03-27T17:43:09.560Z,93.97
2019-03-27T17:45:38.817Z,93.94
2019-03-27T17:48:08.169Z,94.00
2019-03-27T17:50:37.989Z,94.12
2019-03-27T17:53:07.259Z,93.94
2019-03-27T17:55:36.538Z,93.80
2019-03-27T17:58:07.022Z,93.80
2019-03-27T18:00:44.559Z,93.88
2019-03-27T18:03:14.324Z,93.84
2019-03-27T18:05:43.831Z,93.85
2019-03-27T18:08:13.330Z,93.59
2019-03-27T18:10:42.941Z,93.34
2019-03-27T18:13:12.447Z,93.29
2019-03-27T18:15:42.101Z,92.87
2019-03-27T18:18:11.654Z,92.87
2019-03-27T18:20:40.833Z,93.02
2019-03-27T18:23:10.260Z,92.64
2019-03-27T18:25:39.463Z,92.58
2019-03-27T18:28:09.580Z,92.56
2019-03-27T18:30:38.881Z,92.66
2019-03-27T18:33:08.247Z,92.64
2019-03-27T18:35:37.424Z,92.75
2019-03-27T18:38:06.905Z,92.75
2019-03-27T18:40:36.701Z,92.72
2019-03-27T18:43:06.309Z,92.44
2019-03-27T18:45:35.487Z,92.44
2019-03-27T18:48:04.765Z,92.52
2019-03-27T18:50:34.271Z,92.52
2019-03-27T18:53:03.944Z,92.52
2019-03-27T18:55:33.844Z,92.36
2019-03-27T18:58:03.078Z,92.26
2019-03-27T19:00:32.487Z,92.26
2019-03-27T19:03:01.980Z,92.26
2019-03-27T19:05:31.562Z,92.17
2019-03-27T19:08:00.831Z,92.11
2019-03-27T19:10:30.012Z,92.08
2019-03-27T19:12:59.579Z,92.17
2019-03-27T19:15:28.992Z,92.04
2019-03-27T19:17:58.195Z,92.43
2019-03-27T19:20:27.778Z,92.30
2019-03-27T19:22:57.309Z,92.45
2019-03-27T19:25:26.568Z,92.45
2019-03-27T19:27:56.116Z,92.23
2019-03-27T19:30:25.313Z,92.43
2019-03-27T19:32:54.828Z,92.42
2019-03-27T19:35:24.039Z,92.28
2019-03-27T19:37:54.131Z,92.37
2019-03-27T19:40:23.331Z,92.39
2019-03-27T19:42:52.655Z,92.30
2019-03-27T19:45:22.039Z,91.80
2019-03-27T19:47:51.326Z,91.89
2019-03-27T19:50:20.536Z,92.10
2019-03-27T19:52:50.340Z,92.17
2019-03-27T19:55:19.865Z,92.32
2019-03-27T19:57:49.355Z,93.14
2019-03-27T20:00:19.368Z,93.14
2019-03-27T20:02:49.151Z,92.96
2019-03-27T20:05:18.402Z,92.89
2019-03-27T20:07:47.675Z,92.89
2019-03-27T20:10:16.937Z,92.76
2019-03-27T20:12:46.389Z,92.76
2019-03-27T20:15:15.764Z,92.91
2019-03-27T20:17:44.963Z,92.91
2019-03-27T20:20:15.511Z,93.16
2019-03-27T20:22:45.022Z,93.21
2019-03-27T20:25:15.154Z,93.06
2019-03-27T20:27:44.670Z,93.20
2019-03-27T20:30:15.205Z,93.37
2019-03-27T20:32:44.674Z,93.56
2019-03-27T20:35:14.168Z,93.33
2019-03-27T20:37:43.427Z,93.24
2019-03-27T20:40:13.225Z,93.18
2019-03-27T20:42:42.669Z,93.10
2019-03-27T20:45:12.429Z,93.14
2019-03-27T20:47:41.616Z,93.14
2019-03-27T20:50:10.880Z,93.05
2019-03-27T20:52:41.032Z,93.19
2019-03-27T20:55:10.647Z,93.41
2019-03-27T20:57:40.147Z,93.37
2019-03-27T21:00:10.072Z,93.49
2019-03-27T21:02:39.253Z,93.27
2019-03-27T21:05:19.924Z,93.27
2019-03-27T21:07:49.286Z,93.12
2019-03-27T21:10:18.827Z,93.34
2019-03-27T21:12:48.347Z,93.42
2019-03-27T21:15:17.949Z,93.33
2019-03-27T21:17:47.101Z,93.15
2019-03-27T21:20:16.559Z,93.07
2019-03-27T21:22:46.058Z,93.23
2019-03-27T21:25:15.663Z,93.12
2019-03-27T21:27:45.179Z,93.10
2019-03-27T21:30:14.898Z,93.52
2019-03-27T21:32:44.589Z,93.52
2019-03-27T21:35:14.103Z,93.30
2019-03-27T21:37:43.622Z,93.21
2019-03-27T21:40:13.484Z,93.01
2019-03-27T21:42:42.930Z,93.18
2019-03-27T21:45:12.342Z,93.33
2019-03-27T21:47:41.563Z,93.61
2019-03-27T21:50:11.152Z,93.50
2019-03-27T21:52:40.442Z,93.35
2019-03-27T21:55:22.035Z,93.46
2019-03-27T21:57:41.030Z,93.51
2019-03-27T22:00:10.969Z,93.46
2019-03-27T22:02:40.288Z,93.71
2019-03-27T22:05:09.521Z,93.71
2019-03-27T22:07:39.123Z,93.78
2019-03-27T22:10:08.544Z,93.74
2019-03-27T22:12:38.710Z,93.84
2019-03-27T22:15:09.474Z,93.78
2019-03-27T22:17:38.636Z,93.94
2019-03-27T22:20:08.259Z,94.14
2019-03-27T22:22:38.091Z,94.46
2019-03-27T22:25:07.809Z,94.69
2019-03-27T22:27:36.950Z,94.79
2019-03-27T22:30:06.943Z,94.69
2019-03-27T22:32:36.415Z,94.76
2019-03-27T22:35:05.781Z,94.76
2019-03-27T22:37:35.335Z,94.63
2019-03-27T22:40:04.932Z,94.82
2019-03-27T22:42:34.546Z,94.93
2019-03-27T22:45:04.763Z,94.94
2019-03-27T22:47:34.019Z,94.84
2019-03-27T22:50:03.425Z,94.90
2019-03-27T22:52:32.920Z,94.79
2019-03-27T22:55:02.123Z,94.83
2019-03-27T22:57:31.298Z,94.89
2019-03-27T23:00:01.096Z,95.42
2019-03-27T23:02:30.999Z,95.42
2019-03-27T23:05:00.636Z,95.26
2019-03-27T23:07:30.110Z,95.19
2019-03-27T23:09:59.618Z,95.02
2019-03-27T23:12:29.151Z,95.09
2019-03-27T23:14:58.343Z,95.18
2019-03-27T23:17:27.826Z,95.19
2019-03-27T23:19:57.490Z,95.12
2019-03-27T23:22:27.096Z,95.05
2019-03-27T23:24:56.246Z,95.16
2019-03-27T23:27:26.260Z,95.26
2019-03-27T23:29:56.379Z,95.38
2019-03-27T23:32:25.937Z,95.33
2019-03-27T23:34:55.708Z,95.41
2019-03-27T23:37:24.906Z,95.43
2019-03-27T23:39:54.215Z,95.52
2019-03-27T23:42:23.483Z,95.82
2019-03-27T23:44:53.213Z,95.69
2019-03-27T23:47:22.435Z,95.71
2019-03-27T23:49:51.957Z,95.71
2019-03-27T23:52:21.934Z,95.68
2019-03-27T23:54:51.154Z,95.67
2019-03-27T23:57:20.943Z,95.85
2019-03-27T23:59:50.477Z,95.83
